createdAt,value
2018-07-23T00:10:04.837Z,25.20
2018-07-23T00:12:34.383Z,25.20
2018-07-23T00:17:33.263Z,25.20
2018-07-23T00:20:02.812Z,25.20
2018-07-23T00:25:01.403Z,25.20
2018-07-23T00:30:00.098Z,25.10
2018-07-23T00:32:29.668Z,25.20
2018-07-23T00:37:28.268Z,25.10
2018-07-23T00:42:26.893Z,25.10
2018-07-23T00:44:56.427Z,25.10
2018-07-23T00:52:24.125Z,25.00
2018-07-23T00:59:51.809Z,25.00
2018-07-23T01:12:23.761Z,25.00
2018-07-23T01:17:22.361Z,24.90
2018-07-23T01:19:52.957Z,24.90
2018-07-23T01:29:51.293Z,24.80
2018-07-23T01:37:19.758Z,24.80
2018-07-23T01:39:49.303Z,24.80
2018-07-23T01:44:47.948Z,24.80
2018-07-23T01:52:22.088Z,24.60
2018-07-23T01:54:51.619Z,24.60
2018-07-23T01:59:50.232Z,24.60
2018-07-23T02:04:48.848Z,24.60
2018-07-23T02:09:47.443Z,24.50
2018-07-23T02:12:16.966Z,24.50
2018-07-23T02:37:08.395Z,24.50
2018-07-23T02:42:06.994Z,24.40
2018-07-23T02:44:36.527Z,24.40
2018-07-23T03:04:30.021Z,24.20
2018-07-23T03:09:28.648Z,24.30
2018-07-23T03:11:58.197Z,24.20
2018-07-23T03:16:56.809Z,24.20
2018-07-23T03:21:55.586Z,24.20
2018-07-23T03:24:24.994Z,24.10
2018-07-23T03:26:54.519Z,24.10
2018-07-23T03:36:57.672Z,24.10
2018-07-23T03:41:56.302Z,24.10
2018-07-23T03:44:25.843Z,24.10
2018-07-23T03:49:24.476Z,24.00
2018-07-23T03:54:23.153Z,24.00
2018-07-23T03:56:52.701Z,24.00
2018-07-23T04:01:51.324Z,24.00
2018-07-23T04:04:20.847Z,24.00
2018-07-23T04:09:25.897Z,24.00
2018-07-23T04:11:55.423Z,24.00
2018-07-23T04:16:54.035Z,23.90
2018-07-23T04:21:52.676Z,23.90
2018-07-23T04:24:22.261Z,23.90
2018-07-23T04:26:51.834Z,23.90
2018-07-23T04:41:53.151Z,23.90
2018-07-23T04:49:21.206Z,23.90
2018-07-23T04:54:19.811Z,23.90
2018-07-23T05:01:47.502Z,23.90
2018-07-23T05:04:17.052Z,23.90
2018-07-23T05:06:46.594Z,23.90
2018-07-23T05:09:16.169Z,23.90
2018-07-23T05:19:13.112Z,23.90
2018-07-23T05:24:11.736Z,23.90
2018-07-23T05:26:41.252Z,24.00
2018-07-23T05:44:06.370Z,24.10
2018-07-23T05:49:04.977Z,24.10
2018-07-23T05:54:03.663Z,24.10
2018-07-23T05:56:33.241Z,24.10
2018-07-23T05:59:02.769Z,24.20
2018-07-23T06:04:02.272Z,24.30
2018-07-23T06:11:30.011Z,24.40
2018-07-23T06:13:59.523Z,24.40
2018-07-23T06:18:58.477Z,24.50
2018-07-23T06:23:57.131Z,24.60
2018-07-23T06:26:26.683Z,24.60
2018-07-23T06:28:56.242Z,24.60
2018-07-23T06:33:54.897Z,24.70
2018-07-23T06:36:24.663Z,24.70
2018-07-23T06:51:19.983Z,25.20
2018-07-23T06:53:49.519Z,25.20
2018-07-23T06:58:48.211Z,25.20
2018-07-23T07:01:18.476Z,25.10
2018-07-23T07:03:48.044Z,24.50
2018-07-23T07:06:17.673Z,24.20
2018-07-23T07:11:16.273Z,24.10
2018-07-23T07:16:14.852Z,23.90
2018-07-23T07:18:44.388Z,23.60
2018-07-23T07:23:43.229Z,23.60
2018-07-23T07:31:10.947Z,23.90
2018-07-23T07:41:07.736Z,23.70
2018-07-23T07:43:37.284Z,23.80
2018-07-23T07:48:35.910Z,24.00
2018-07-23T07:56:03.742Z,24.30
2018-07-23T08:06:00.496Z,23.90
2018-07-23T08:10:59.110Z,24.10
2018-07-23T08:13:28.657Z,24.10
2018-07-23T08:18:27.249Z,24.00
2018-07-23T08:25:54.947Z,24.50
2018-07-23T08:33:23.550Z,24.60
2018-07-23T08:38:22.170Z,24.70
2018-07-23T08:40:52.578Z,24.80
2018-07-23T08:45:52.011Z,24.80
2018-07-23T08:50:50.627Z,24.80
2018-07-23T08:55:49.260Z,24.80
2018-07-23T08:58:18.802Z,24.80
2018-07-23T09:18:12.318Z,24.90
2018-07-23T09:28:16.449Z,24.90
2018-07-23T09:30:51.442Z,24.90
2018-07-23T09:33:22.363Z,24.90
2018-07-23T09:35:52.576Z,24.90
2018-07-23T09:40:52.732Z,25.00
2018-07-23T09:43:22.252Z,25.00
2018-07-23T09:45:51.797Z,25.00
2018-07-23T09:55:48.541Z,25.00
2018-07-23T10:00:52.468Z,25.10
2018-07-23T10:03:22.066Z,25.10
2018-07-23T10:05:51.751Z,25.10
2018-07-23T10:08:21.276Z,25.10
2018-07-23T10:10:50.840Z,25.10
2018-07-23T10:13:20.356Z,25.20
2018-07-23T10:15:49.899Z,25.20
2018-07-23T10:18:19.430Z,25.20
2018-07-23T10:20:48.952Z,25.20
2018-07-23T10:23:18.484Z,25.20
2018-07-23T10:25:48.004Z,25.30
2018-07-23T10:30:46.614Z,25.30
2018-07-23T10:38:15.840Z,25.40
2018-07-23T10:40:45.392Z,25.20
2018-07-23T10:43:15.415Z,25.30
2018-07-23T10:45:44.965Z,25.30
2018-07-23T10:55:42.048Z,25.40
2018-07-23T11:00:40.628Z,25.30
2018-07-23T11:03:10.164Z,25.30
2018-07-23T11:18:05.136Z,25.10
2018-07-23T11:23:03.789Z,25.10
2018-07-23T11:25:40.672Z,25.20
2018-07-23T11:30:31.957Z,25.20
2018-07-23T11:33:01.684Z,25.30
2018-07-23T11:38:00.295Z,25.40
2018-07-23T11:42:59.198Z,25.60
2018-07-23T11:45:28.713Z,25.70
2018-07-23T11:55:25.505Z,25.90
2018-07-23T11:57:55.028Z,25.90
2018-07-23T12:02:53.619Z,26.00
2018-07-23T12:12:50.429Z,26.20
2018-07-23T12:20:18.115Z,26.30
2018-07-23T12:25:16.758Z,26.50
2018-07-23T12:30:15.373Z,26.50
2018-07-23T12:40:12.182Z,26.40
2018-07-23T12:42:41.791Z,26.50
2018-07-23T12:45:11.336Z,26.50
2018-07-23T12:55:08.077Z,26.70
2018-07-23T13:00:07.207Z,26.90
2018-07-23T13:05:05.845Z,26.80
2018-07-23T13:07:35.380Z,26.90
2018-07-23T13:10:05.354Z,26.90
2018-07-23T13:15:04.501Z,26.90
2018-07-23T13:20:03.108Z,27.10
2018-07-23T13:25:01.696Z,27.10
2018-07-23T13:30:00.308Z,27.20
2018-07-23T13:32:29.828Z,27.30
2018-07-23T13:42:26.877Z,27.20
2018-07-23T13:47:25.525Z,27.00
2018-07-23T13:52:24.128Z,26.90
2018-07-23T13:59:51.792Z,27.10
2018-07-23T14:02:21.326Z,27.10
2018-07-23T14:04:50.875Z,27.10
2018-07-23T14:09:49.848Z,27.10
2018-07-23T14:12:19.376Z,27.20
2018-07-23T14:24:45.301Z,27.40
2018-07-23T14:27:14.850Z,27.40
2018-07-23T14:32:13.480Z,27.30
2018-07-23T14:37:12.095Z,27.30
2018-07-23T14:39:41.645Z,27.30
2018-07-23T14:44:40.265Z,27.20
2018-07-23T14:52:07.991Z,27.20
2018-07-23T14:54:37.504Z,27.20
2018-07-23T14:57:07.033Z,27.20
2018-07-23T14:59:36.559Z,27.20
2018-07-23T15:02:06.557Z,27.20
2018-07-23T15:12:03.984Z,27.20
2018-07-23T15:14:33.656Z,27.20
2018-07-23T15:17:03.447Z,27.20
2018-07-23T15:19:32.982Z,27.20
2018-07-23T15:22:02.561Z,27.10
2018-07-23T15:24:32.324Z,27.10
2018-07-23T15:32:00.507Z,27.10
2018-07-23T15:36:59.125Z,27.20
2018-07-23T15:44:27.014Z,26.40
2018-07-23T15:54:24.214Z,26.20
2018-07-23T15:56:53.775Z,26.20
2018-07-23T16:01:52.378Z,26.20
2018-07-23T16:04:21.941Z,26.30
2018-07-23T16:09:20.571Z,26.50
2018-07-23T16:24:15.564Z,26.80
2018-07-23T16:26:45.151Z,26.90
2018-07-23T16:29:14.679Z,26.90
2018-07-23T16:31:44.244Z,26.80
2018-07-23T16:34:20.232Z,26.80
2018-07-23T16:36:49.782Z,26.90
2018-07-23T16:41:48.397Z,27.00
2018-07-23T16:54:15.274Z,27.00
2018-07-23T16:56:44.790Z,26.90
2018-07-23T17:06:42.007Z,26.80
2018-07-23T17:24:12.678Z,26.60
2018-07-23T17:26:42.328Z,26.50
2018-07-23T17:31:41.023Z,26.60
2018-07-23T17:36:39.644Z,26.60
2018-07-23T17:39:11.283Z,26.70
2018-07-23T17:44:09.936Z,26.80
2018-07-23T17:46:39.448Z,26.90
2018-07-23T17:51:38.030Z,26.90
2018-07-23T17:56:36.642Z,26.90
2018-07-23T18:01:35.271Z,26.90
2018-07-23T18:04:04.797Z,26.90
2018-07-23T18:09:03.515Z,26.90
2018-07-23T18:11:33.068Z,26.90
2018-07-23T18:16:32.037Z,26.90
2018-07-23T18:19:01.584Z,26.90
2018-07-23T18:24:00.175Z,26.90
2018-07-23T18:28:58.806Z,26.90
2018-07-23T18:31:28.345Z,26.90
2018-07-23T18:33:58.052Z,26.90
2018-07-23T18:38:56.696Z,27.00
2018-07-23T18:41:26.235Z,26.90
2018-07-23T18:43:55.787Z,26.90
2018-07-23T18:51:56.018Z,26.90
2018-07-23T18:54:26.884Z,26.90
2018-07-23T18:59:27.821Z,26.60
2018-07-23T19:09:26.067Z,26.70
2018-07-23T19:16:55.800Z,26.80
2018-07-23T19:19:25.338Z,26.80
2018-07-23T19:21:54.932Z,26.80
2018-07-23T19:29:23.753Z,26.80
2018-07-23T19:31:53.308Z,26.80
2018-07-23T19:39:22.264Z,26.80
2018-07-23T19:44:21.904Z,26.80
2018-07-23T19:49:20.512Z,26.70
2018-07-23T19:56:48.276Z,26.80
2018-07-23T20:01:46.884Z,26.70
2018-07-23T20:06:45.516Z,26.70
2018-07-23T20:09:15.040Z,26.70
2018-07-23T20:14:13.664Z,26.70
2018-07-23T20:19:12.263Z,26.70
2018-07-23T20:26:39.970Z,26.60
2018-07-23T20:29:09.493Z,26.50
2018-07-23T20:31:39.036Z,26.60
2018-07-23T20:34:08.564Z,26.60
2018-07-23T20:39:07.939Z,26.50
2018-07-23T20:44:07.121Z,26.50
2018-07-23T20:49:05.759Z,26.50
2018-07-23T20:54:04.421Z,26.50
2018-07-23T20:56:34.003Z,26.50
2018-07-23T21:01:32.566Z,26.50
2018-07-23T21:04:02.094Z,26.40
2018-07-23T21:09:01.103Z,26.50
2018-07-23T21:11:30.645Z,26.40
2018-07-23T21:16:29.263Z,26.40
2018-07-23T21:21:27.881Z,26.40
2018-07-23T21:23:57.420Z,26.40
2018-07-23T21:28:56.045Z,26.40
2018-07-23T21:31:25.571Z,26.40
2018-07-23T21:46:20.499Z,26.40
2018-07-23T21:53:55.133Z,26.30
2018-07-23T21:56:24.664Z,26.40
2018-07-23T21:58:54.179Z,26.30
2018-07-23T22:01:23.714Z,26.30
2018-07-23T22:06:24.500Z,26.30
2018-07-23T22:08:55.947Z,26.30
2018-07-23T22:13:54.580Z,26.30
2018-07-23T22:16:24.119Z,26.30
2018-07-23T22:21:22.717Z,26.20
2018-07-23T22:28:50.575Z,26.20
2018-07-23T22:33:49.244Z,26.20
2018-07-23T22:41:23.956Z,26.10
2018-07-23T22:46:22.550Z,26.10
2018-07-23T22:48:52.391Z,26.10
2018-07-23T22:51:21.936Z,26.10
2018-07-23T23:01:19.271Z,26.10
2018-07-23T23:03:48.794Z,26.00
2018-07-23T23:11:16.923Z,26.00
2018-07-23T23:18:44.940Z,26.00
2018-07-23T23:28:41.791Z,25.90
2018-07-23T23:33:40.539Z,25.90
2018-07-23T23:43:43.687Z,25.90
2018-07-23T23:46:13.195Z,25.90
2018-07-23T23:51:11.804Z,25.90
2018-07-23T23:53:41.323Z,25.90
